createdAt,value
2022-12-03T00:01:14.108Z,9.48
2022-12-03T00:03:40.945Z,13.10
2022-12-03T00:06:07.766Z,6.13
2022-12-03T00:08:34.349Z,11.45
2022-12-03T00:11:00.907Z,7.72
2022-12-03T00:13:27.422Z,7.35
2022-12-03T00:15:54.046Z,8.30
2022-12-03T00:18:20.675Z,9.40
2022-12-03T00:20:47.253Z,9.65
2022-12-03T00:23:13.790Z,9.85
2022-12-03T00:25:40.403Z,10.70
2022-12-03T00:28:07.698Z,10.07
2022-12-03T00:30:34.332Z,14.27
2022-12-03T00:33:00.874Z,10.30
2022-12-03T00:35:27.410Z,13.15
2022-12-03T00:37:54.772Z,11.48
2022-12-03T00:40:21.404Z,8.32
2022-12-03T00:42:47.940Z,11.10
2022-12-03T00:45:14.478Z,9.82
2022-12-03T00:47:41.022Z,9.85
2022-12-03T00:50:08.526Z,11.05
2022-12-03T00:52:35.052Z,12.50
2022-12-03T00:55:01.678Z,8.38
2022-12-03T00:57:28.283Z,11.98
2022-12-03T00:59:54.820Z,9.75
2022-12-03T01:02:21.624Z,15.23
2022-12-03T01:04:48.387Z,19.38
2022-12-03T01:07:14.968Z,12.77
2022-12-03T01:09:41.504Z,14.20
2022-12-03T01:12:08.113Z,16.08
2022-12-03T01:14:34.917Z,18.38
2022-12-03T01:17:01.485Z,10.23
2022-12-03T01:19:28.185Z,11.35
2022-12-03T01:21:56.212Z,11.52
2022-12-03T01:24:24.712Z,11.90
2022-12-03T01:26:53.075Z,15.38
2022-12-03T01:29:21.060Z,9.15
2022-12-03T01:32:09.246Z,12.77
2022-12-03T01:34:37.588Z,12.35
2022-12-03T01:37:06.296Z,11.40
2022-12-03T01:39:34.720Z,11.63
2022-12-03T01:42:03.484Z,10.85
2022-12-03T01:44:35.530Z,14.88
2022-12-03T01:47:07.520Z,11.70
2022-12-03T01:49:42.853Z,15.43
2022-12-03T01:52:13.553Z,10.98
2022-12-03T01:54:47.577Z,11.23
2022-12-03T01:59:59.992Z,14.63
2022-12-03T02:02:30.211Z,8.07
2022-12-03T02:04:57.727Z,12.52
2022-12-03T02:10:02.721Z,8.88
2022-12-03T02:12:41.361Z,14.75
2022-12-03T02:15:09.327Z,15.93
2022-12-03T02:17:36.183Z,9.82
2022-12-03T02:20:05.480Z,12.82
2022-12-03T02:25:41.430Z,15.02
2022-12-03T02:28:09.687Z,15.35
2022-12-03T02:30:37.118Z,12.40
2022-12-03T02:33:04.139Z,17.48
2022-12-03T02:35:33.496Z,17.67
2022-12-03T02:38:06.442Z,13.65
2022-12-03T02:40:34.318Z,14.48
2022-12-03T02:43:03.835Z,18.35
2022-12-03T02:45:34.435Z,14.27
2022-12-03T02:48:05.514Z,18.00
2022-12-03T02:50:39.519Z,14.35
2022-12-03T02:53:11.861Z,13.20
2022-12-03T02:55:39.195Z,9.77
2022-12-03T02:58:06.695Z,12.70
2022-12-03T03:00:35.730Z,17.88
2022-12-03T03:03:04.535Z,13.35
2022-12-03T03:05:31.496Z,13.27
2022-12-03T03:07:59.466Z,16.15
2022-12-03T03:10:27.431Z,12.07
2022-12-03T03:12:55.639Z,13.07
2022-12-03T03:15:23.774Z,11.32
2022-12-03T03:17:50.665Z,12.30
2022-12-03T03:20:18.632Z,12.52
2022-12-03T03:22:45.424Z,13.23
2022-12-03T03:25:17.441Z,11.52
2022-12-03T03:27:45.561Z,11.43
2022-12-03T03:30:13.472Z,9.43
2022-12-03T03:32:40.769Z,9.93
2022-12-03T03:35:09.285Z,9.27
2022-12-03T03:37:36.044Z,12.15
2022-12-03T03:40:02.631Z,7.72
2022-12-03T03:42:29.355Z,11.52
2022-12-03T03:44:56.155Z,11.27
2022-12-03T03:47:23.861Z,14.48
2022-12-03T03:49:50.921Z,7.90
2022-12-03T03:52:19.205Z,20.30
2022-12-03T03:54:46.321Z,9.75
2022-12-03T03:57:13.050Z,14.48
2022-12-03T03:59:39.649Z,7.63
2022-12-03T04:02:06.225Z,8.38
2022-12-03T04:04:36.696Z,9.15
2022-12-03T04:09:29.752Z,8.93
2022-12-03T04:12:16.201Z,11.45
2022-12-03T04:14:42.725Z,8.88
2022-12-03T04:17:09.345Z,11.20
2022-12-03T04:19:35.884Z,10.43
2022-12-03T04:22:22.371Z,10.52
2022-12-03T04:24:49.165Z,6.90
2022-12-03T04:27:35.653Z,13.82
2022-12-03T04:30:02.167Z,10.95
2022-12-03T04:32:48.619Z,10.35
2022-12-03T04:35:35.279Z,9.25
2022-12-03T04:38:02.562Z,9.50
2022-12-03T04:40:49.019Z,14.18
2022-12-03T04:43:15.538Z,11.52
2022-12-03T04:45:42.140Z,9.38
2022-12-03T04:48:08.709Z,10.50
2022-12-03T04:50:35.270Z,11.00
2022-12-03T04:53:01.820Z,12.52
2022-12-03T04:55:28.374Z,7.05
2022-12-03T04:57:54.939Z,12.20
2022-12-03T05:00:21.687Z,9.10
2022-12-03T05:02:48.279Z,7.50
2022-12-03T05:05:15.001Z,12.05
2022-12-03T05:07:41.684Z,6.90
2022-12-03T05:10:08.854Z,13.73
2022-12-03T05:12:35.743Z,11.25
2022-12-03T05:15:03.515Z,7.90
2022-12-03T05:17:30.088Z,8.68
2022-12-03T05:20:16.547Z,8.30
2022-12-03T05:22:43.856Z,10.90
2022-12-03T05:25:10.568Z,8.52
2022-12-03T05:27:37.153Z,11.00
2022-12-03T05:30:04.114Z,9.38
2022-12-03T05:32:31.199Z,12.43
2022-12-03T05:34:57.770Z,8.73
2022-12-03T05:37:24.300Z,10.32
2022-12-03T05:39:50.817Z,11.82
2022-12-03T05:42:37.296Z,8.73
2022-12-03T05:45:04.158Z,10.95
2022-12-03T05:47:30.714Z,9.30
2022-12-03T05:49:57.267Z,6.75
2022-12-03T05:52:23.831Z,8.65
2022-12-03T05:54:50.477Z,6.88
2022-12-03T05:57:17.105Z,13.48
2022-12-03T05:59:43.633Z,9.85
2022-12-03T06:02:10.214Z,11.15
2022-12-03T06:04:36.760Z,12.60
2022-12-03T06:07:03.314Z,9.38
2022-12-03T06:09:29.874Z,8.60
2022-12-03T06:11:56.414Z,8.43
2022-12-03T06:14:22.987Z,7.47
2022-12-03T06:16:49.593Z,9.10
2022-12-03T06:19:16.125Z,9.02
2022-12-03T06:21:42.663Z,10.38
2022-12-03T06:24:09.275Z,8.90
2022-12-03T06:26:36.154Z,12.13
2022-12-03T06:29:02.746Z,7.53
2022-12-03T06:31:29.425Z,8.20
2022-12-03T06:33:56.031Z,6.47
2022-12-03T06:36:23.487Z,7.68
2022-12-03T06:38:50.182Z,10.68
2022-12-03T06:41:16.716Z,8.60
2022-12-03T06:43:43.266Z,11.57
2022-12-03T06:46:10.003Z,11.40
2022-12-03T06:48:36.568Z,10.20
2022-12-03T06:51:03.115Z,9.32
2022-12-03T06:53:29.858Z,10.05
2022-12-03T06:55:56.745Z,7.45
2022-12-03T06:58:23.303Z,8.30
2022-12-03T07:00:49.837Z,8.15
2022-12-03T07:03:16.473Z,6.18
2022-12-03T07:05:43.106Z,10.52
2022-12-03T07:08:09.735Z,12.05
2022-12-03T07:10:36.332Z,8.63
2022-12-03T07:13:02.921Z,10.27
2022-12-03T07:15:29.556Z,7.93
2022-12-03T07:17:56.096Z,9.40
2022-12-03T07:20:22.844Z,7.75
2022-12-03T07:22:49.394Z,4.95
2022-12-03T07:25:22.611Z,9.90
2022-12-03T07:27:49.898Z,11.02
2022-12-03T07:30:16.934Z,9.20
2022-12-03T07:32:43.504Z,10.13
2022-12-03T07:35:10.325Z,9.13
2022-12-03T07:37:37.079Z,4.95
2022-12-03T07:40:06.239Z,6.50
2022-12-03T07:42:32.866Z,6.82
2022-12-03T07:44:59.418Z,12.05
2022-12-03T07:47:26.481Z,10.68
2022-12-03T07:49:53.077Z,4.18
2022-12-03T07:52:19.633Z,8.02
2022-12-03T07:54:46.159Z,9.73
2022-12-03T07:57:13.736Z,5.40
2022-12-03T07:59:40.323Z,5.07
2022-12-03T08:02:06.900Z,9.43
2022-12-03T08:04:33.499Z,6.13
2022-12-03T08:07:00.029Z,5.35
2022-12-03T08:09:26.643Z,7.95
2022-12-03T08:11:53.837Z,8.20
2022-12-03T08:14:21.141Z,5.50
2022-12-03T08:16:48.536Z,7.15
2022-12-03T08:19:17.414Z,6.30
2022-12-03T08:21:44.113Z,7.97
2022-12-03T08:24:15.033Z,4.20
2022-12-03T08:26:44.308Z,7.40
2022-12-03T08:29:13.542Z,6.30
2022-12-03T08:31:40.359Z,7.10
2022-12-03T08:34:18.742Z,4.85
2022-12-03T08:36:46.714Z,4.75
2022-12-03T08:44:55.765Z,4.78
2022-12-03T08:47:24.432Z,5.15
2022-12-03T08:49:58.116Z,5.00
2022-12-03T08:52:31.823Z,5.35
2022-12-03T08:54:59.876Z,7.85
2022-12-03T08:57:30.552Z,3.97
2022-12-03T09:00:21.240Z,2.72
2022-12-03T09:02:51.394Z,5.03
2022-12-03T09:05:22.588Z,4.00
2022-12-03T09:07:49.425Z,6.85
2022-12-03T09:10:16.175Z,4.60
2022-12-03T09:12:42.761Z,2.45
2022-12-03T09:15:09.697Z,4.85
2022-12-03T09:17:36.291Z,2.40
2022-12-03T09:20:03.800Z,6.03
2022-12-03T09:22:30.352Z,3.83
2022-12-03T09:24:56.918Z,2.58
2022-12-03T09:27:23.586Z,3.15
2022-12-03T09:29:51.008Z,4.60
2022-12-03T09:32:18.834Z,2.70
2022-12-03T09:34:46.497Z,4.43
2022-12-03T09:37:13.115Z,2.08
2022-12-03T09:39:39.710Z,4.15
2022-12-03T09:42:06.304Z,4.80
2022-12-03T09:44:34.393Z,2.53
2022-12-03T09:47:01.989Z,5.20
2022-12-03T09:49:30.435Z,2.22
2022-12-03T09:51:58.373Z,5.72
2022-12-03T09:54:27.529Z,1.65
2022-12-03T09:56:55.792Z,2.05
2022-12-03T09:59:25.702Z,1.75
2022-12-03T10:01:53.463Z,1.55
2022-12-03T10:04:20.329Z,2.10
2022-12-03T10:06:47.853Z,3.42
2022-12-03T10:09:20.889Z,1.63
2022-12-03T10:11:47.660Z,4.20
2022-12-03T10:14:17.210Z,1.73
2022-12-03T10:16:44.005Z,2.60
2022-12-03T10:19:21.378Z,4.07
2022-12-03T10:21:48.124Z,3.58
2022-12-03T10:27:25.241Z,4.10
2022-12-03T10:29:57.397Z,3.30
2022-12-03T10:32:27.934Z,2.95
2022-12-03T10:35:09.517Z,3.15
2022-12-03T10:37:36.202Z,2.00
2022-12-03T10:40:09.126Z,3.53
2022-12-03T10:42:38.543Z,3.95
2022-12-03T10:51:07.064Z,3.20
2022-12-03T10:53:37.547Z,2.65
2022-12-03T10:56:07.480Z,3.10
2022-12-03T10:58:37.328Z,6.30
2022-12-03T11:01:13.763Z,5.13
2022-12-03T11:03:40.677Z,2.90
2022-12-03T11:06:14.994Z,4.38
2022-12-03T11:08:44.670Z,2.63
2022-12-03T11:11:29.105Z,2.35
2022-12-03T11:22:38.573Z,2.22
2022-12-03T11:31:40.890Z,5.28
2022-12-03T11:37:22.207Z,2.50
2022-12-03T11:42:41.110Z,2.67
2022-12-03T11:48:15.591Z,1.65
2022-12-03T11:53:34.051Z,2.15
2022-12-03T11:56:08.929Z,5.07
2022-12-03T11:58:38.366Z,2.88
2022-12-03T12:01:07.449Z,2.78
2022-12-03T12:03:36.930Z,2.20
2022-12-03T12:08:58.766Z,2.70
2022-12-03T12:14:26.435Z,5.60
2022-12-03T12:16:55.269Z,3.10
2022-12-03T12:19:40.103Z,4.43
2022-12-03T12:22:17.174Z,3.40
2022-12-03T12:24:47.172Z,3.63
2022-12-03T12:35:47.421Z,1.70
2022-12-03T12:38:17.320Z,3.38
2022-12-03T12:40:46.901Z,2.17
2022-12-03T12:46:45.940Z,6.60
2022-12-03T12:49:01.391Z,2.50
2022-12-03T12:51:27.989Z,4.20
2022-12-03T12:53:54.832Z,2.60
2022-12-03T12:59:15.600Z,3.25
2022-12-03T13:01:44.087Z,8.40
2022-12-03T13:04:13.137Z,4.97
2022-12-03T13:06:40.222Z,4.60
2022-12-03T13:09:24.718Z,2.10
2022-12-03T13:11:55.780Z,4.30
2022-12-03T13:14:25.598Z,4.45
2022-12-03T13:16:54.667Z,2.85
2022-12-03T13:22:16.180Z,5.15
2022-12-03T13:24:45.581Z,2.97
2022-12-03T13:30:16.583Z,4.72
2022-12-03T13:32:44.077Z,2.35
2022-12-03T13:38:00.603Z,6.68
2022-12-03T13:40:31.460Z,5.18
2022-12-03T13:42:58.406Z,4.07
2022-12-03T13:48:23.876Z,1.92
2022-12-03T13:50:52.432Z,1.80
2022-12-03T13:56:30.406Z,1.73
2022-12-03T13:59:00.113Z,1.80
2022-12-03T14:01:28.162Z,2.05
2022-12-03T14:03:54.931Z,4.88
2022-12-03T14:06:21.601Z,5.68
2022-12-03T14:08:48.165Z,3.25
2022-12-03T14:11:34.712Z,3.45
2022-12-03T14:14:01.413Z,3.80
2022-12-03T14:16:28.039Z,2.78
2022-12-03T14:18:54.726Z,5.28
2022-12-03T14:21:21.369Z,5.07
2022-12-03T14:23:47.932Z,3.33
2022-12-03T14:26:14.517Z,2.70
2022-12-03T14:28:41.064Z,4.03
2022-12-03T14:31:08.031Z,7.03
2022-12-03T14:33:34.610Z,5.07
2022-12-03T14:36:01.186Z,4.25
2022-12-03T14:38:27.796Z,3.08
2022-12-03T14:40:54.323Z,6.47
2022-12-03T14:43:20.874Z,8.13
2022-12-03T14:45:47.455Z,5.00
2022-12-03T14:48:13.987Z,3.25
2022-12-03T14:50:40.572Z,4.75
2022-12-03T14:53:07.109Z,7.38
2022-12-03T14:55:33.687Z,6.20
2022-12-03T14:58:00.228Z,2.05
2022-12-03T15:00:26.774Z,3.25
2022-12-03T15:02:53.388Z,2.35
2022-12-03T15:05:24.918Z,7.43
2022-12-03T15:07:55.028Z,7.82
2022-12-03T15:10:21.646Z,4.10
2022-12-03T15:12:48.233Z,6.05
2022-12-03T15:15:14.843Z,6.10
2022-12-03T15:17:41.890Z,2.70
2022-12-03T15:20:08.948Z,1.45
2022-12-03T15:22:35.501Z,1.58
2022-12-03T15:25:03.431Z,4.70
2022-12-03T15:27:30.011Z,5.13
2022-12-03T15:29:56.768Z,3.78
2022-12-03T15:32:23.488Z,2.53
2022-12-03T15:34:51.369Z,2.58
2022-12-03T15:37:18.066Z,3.30
2022-12-03T15:39:48.339Z,4.57
2022-12-03T15:42:15.515Z,1.77
2022-12-03T15:44:42.094Z,7.28
2022-12-03T15:47:08.678Z,2.95
2022-12-03T15:49:35.252Z,3.67
2022-12-03T15:52:01.801Z,3.78
2022-12-03T15:54:28.359Z,5.28
2022-12-03T15:56:57.384Z,3.83
2022-12-03T15:59:24.534Z,3.47
2022-12-03T16:01:51.194Z,7.38
2022-12-03T16:04:17.798Z,2.25
2022-12-03T16:06:44.329Z,6.93
2022-12-03T16:09:10.897Z,3.35
2022-12-03T16:11:37.443Z,4.70
2022-12-03T16:14:03.977Z,4.32
2022-12-03T16:16:30.589Z,2.88
2022-12-03T16:18:57.231Z,4.47
2022-12-03T16:21:27.081Z,3.55
2022-12-03T16:23:54.289Z,3.88
2022-12-03T16:26:20.901Z,5.32
2022-12-03T16:28:47.430Z,2.67
2022-12-03T16:31:14.202Z,2.00
2022-12-03T16:33:40.842Z,5.10
2022-12-03T16:36:07.764Z,3.50
2022-12-03T16:38:35.344Z,5.35
2022-12-03T16:41:02.238Z,5.95
2022-12-03T16:43:28.907Z,4.78
2022-12-03T16:48:50.116Z,4.18
2022-12-03T16:51:16.813Z,2.55
2022-12-03T16:53:43.411Z,3.42
2022-12-03T16:56:10.062Z,5.15
2022-12-03T16:58:36.719Z,7.03
2022-12-03T17:01:03.779Z,9.02
2022-12-03T17:03:33.838Z,10.18
2022-12-03T17:06:01.292Z,9.85
2022-12-03T17:08:28.184Z,7.78
2022-12-03T17:10:54.780Z,7.85
2022-12-03T17:13:23.194Z,4.03
2022-12-03T17:15:50.511Z,6.65
2022-12-03T17:18:17.148Z,10.18
2022-12-03T17:20:43.719Z,8.65
2022-12-03T17:23:10.416Z,8.65
2022-12-03T17:25:37.086Z,6.00
2022-12-03T17:28:03.709Z,8.05
2022-12-03T17:30:30.262Z,7.10
2022-12-03T17:32:56.818Z,8.45
2022-12-03T17:35:23.472Z,5.28
2022-12-03T17:37:50.028Z,4.80
2022-12-03T17:40:17.392Z,7.85
2022-12-03T17:42:43.998Z,4.13
2022-12-03T17:45:11.160Z,4.00
2022-12-03T17:47:37.839Z,7.43
2022-12-03T17:50:05.053Z,5.60
2022-12-03T17:52:31.622Z,10.32
2022-12-03T17:55:23.622Z,9.15
2022-12-03T17:57:44.775Z,5.25
2022-12-03T18:00:11.871Z,3.42
2022-12-03T18:02:38.553Z,5.57
2022-12-03T18:05:05.420Z,5.68
2022-12-03T18:07:32.244Z,6.78
2022-12-03T18:09:58.919Z,4.85
2022-12-03T18:12:25.628Z,6.05
2022-12-03T18:14:52.197Z,4.85
2022-12-03T18:17:18.747Z,5.20
2022-12-03T18:19:45.300Z,6.15
2022-12-03T18:22:12.717Z,4.65
2022-12-03T18:24:39.392Z,5.13
2022-12-03T18:27:06.125Z,10.68
2022-12-03T18:29:32.695Z,9.95
2022-12-03T18:31:59.316Z,6.93
2022-12-03T18:34:25.922Z,10.00
2022-12-03T18:36:52.531Z,7.50
2022-12-03T18:39:25.511Z,8.88
2022-12-03T18:41:53.085Z,9.18
2022-12-03T18:44:20.000Z,8.50
2022-12-03T18:46:54.656Z,9.45
2022-12-03T18:49:21.914Z,8.75
2022-12-03T18:51:48.956Z,17.02
2022-12-03T18:54:17.215Z,42.25
2022-12-03T18:56:43.832Z,26.40
2022-12-03T18:59:11.266Z,32.80
2022-12-03T19:01:37.925Z,35.28
2022-12-03T19:04:04.667Z,19.67
2022-12-03T19:06:31.272Z,15.13
2022-12-03T19:08:58.002Z,13.38
2022-12-03T19:11:24.751Z,14.23
2022-12-03T19:13:51.900Z,10.15
2022-12-03T19:16:21.468Z,9.73
2022-12-03T19:18:48.410Z,11.95
2022-12-03T19:21:16.425Z,19.98
2022-12-03T19:24:04.165Z,22.00
2022-12-03T19:26:30.065Z,12.30
2022-12-03T19:28:56.694Z,12.18
2022-12-03T19:31:23.369Z,21.08
2022-12-03T19:33:50.789Z,25.33
2022-12-03T19:38:59.014Z,26.25
2022-12-03T19:41:27.454Z,44.03
2022-12-03T19:43:55.710Z,20.00
2022-12-03T19:46:24.374Z,11.75
2022-12-03T19:48:51.812Z,16.23
2022-12-03T19:51:34.165Z,14.00
2022-12-03T19:54:02.709Z,5.90
2022-12-03T19:56:30.480Z,10.65
2022-12-03T19:58:57.220Z,8.40
2022-12-03T20:01:26.518Z,5.93
2022-12-03T20:03:55.229Z,11.95
2022-12-03T20:06:25.219Z,7.80
2022-12-03T20:08:57.148Z,8.20
2022-12-03T20:11:26.519Z,9.20
2022-12-03T20:13:56.384Z,6.35
2022-12-03T20:16:24.434Z,10.75
2022-12-03T20:18:55.318Z,9.85
2022-12-03T20:21:21.880Z,5.65
2022-12-03T20:23:48.477Z,8.55
2022-12-03T20:26:18.350Z,12.07
2022-12-03T20:28:45.415Z,7.13
2022-12-03T20:31:15.023Z,11.98
2022-12-03T20:33:43.883Z,7.45
2022-12-03T20:36:12.634Z,13.05
2022-12-03T20:38:39.196Z,10.25
2022-12-03T20:41:15.778Z,15.98
2022-12-03T20:43:42.538Z,8.43
2022-12-03T20:46:29.738Z,7.43
2022-12-03T20:48:57.599Z,11.15
2022-12-03T20:51:27.215Z,11.93
2022-12-03T20:53:54.310Z,13.68
2022-12-03T20:56:24.672Z,8.73
2022-12-03T20:58:51.282Z,6.70
2022-12-03T21:01:20.929Z,10.98
2022-12-03T21:03:49.035Z,11.50
2022-12-03T21:06:16.578Z,10.23
2022-12-03T21:08:43.739Z,10.05
2022-12-03T21:11:13.230Z,7.85
2022-12-03T21:13:44.037Z,7.05
2022-12-03T21:16:14.388Z,9.10
2022-12-03T21:18:41.471Z,9.18
2022-12-03T21:21:09.056Z,8.73
2022-12-03T21:23:35.688Z,7.78
2022-12-03T21:26:08.287Z,7.03
2022-12-03T21:28:35.167Z,11.45
2022-12-03T21:31:04.990Z,10.00
2022-12-03T21:33:32.465Z,5.75
2022-12-03T21:35:59.889Z,6.13
2022-12-03T21:38:28.788Z,8.85
2022-12-03T21:40:55.891Z,7.57
2022-12-03T21:43:22.984Z,6.47
2022-12-03T21:45:50.019Z,10.45
2022-12-03T21:48:17.265Z,9.55
2022-12-03T21:50:44.577Z,5.80
2022-12-03T21:53:11.872Z,12.00
2022-12-03T21:55:40.677Z,9.07
2022-12-03T21:58:08.649Z,9.98
2022-12-03T22:00:35.799Z,6.57
2022-12-03T22:03:02.502Z,7.97
2022-12-03T22:05:29.147Z,11.48
2022-12-03T22:07:55.816Z,9.60
2022-12-03T22:10:22.523Z,13.57
2022-12-03T22:12:49.072Z,5.40
2022-12-03T22:15:19.230Z,12.48
2022-12-03T22:17:46.274Z,6.78
2022-12-03T22:20:13.421Z,6.88
2022-12-03T22:22:40.183Z,7.22
2022-12-03T22:25:07.347Z,7.72
2022-12-03T22:27:33.904Z,4.88
2022-12-03T22:30:00.442Z,6.45
2022-12-03T22:32:27.319Z,5.25
2022-12-03T22:34:53.875Z,8.80
2022-12-03T22:37:20.503Z,6.00
2022-12-03T22:39:47.046Z,5.05
2022-12-03T22:42:13.775Z,7.10
2022-12-03T22:44:40.369Z,6.03
2022-12-03T22:47:06.949Z,5.07
2022-12-03T22:49:33.522Z,3.88
2022-12-03T22:52:00.071Z,7.45
2022-12-03T22:54:26.635Z,3.38
2022-12-03T22:56:53.143Z,3.80
2022-12-03T22:59:19.792Z,3.38
2022-12-03T23:01:46.374Z,3.28
2022-12-03T23:04:13.067Z,3.20
2022-12-03T23:06:40.192Z,3.95
2022-12-03T23:09:08.140Z,6.25
2022-12-03T23:11:34.970Z,2.53
2022-12-03T23:14:02.050Z,3.05
2022-12-03T23:16:31.829Z,3.08
2022-12-03T23:18:59.956Z,3.03
2022-12-03T23:21:30.168Z,4.15
2022-12-03T23:23:59.593Z,6.13
2022-12-03T23:26:27.094Z,3.55
2022-12-03T23:28:54.075Z,2.03
2022-12-03T23:34:01.094Z,2.80
2022-12-03T23:36:29.854Z,1.88
2022-12-03T23:38:57.353Z,4.35
2022-12-03T23:41:25.141Z,3.42
2022-12-03T23:43:51.901Z,3.15
2022-12-03T23:46:22.411Z,4.95
2022-12-03T23:48:49.200Z,3.60
2022-12-03T23:51:19.045Z,3.40
2022-12-03T23:53:46.478Z,3.75
2022-12-03T23:56:16.284Z,3.17
2022-12-03T23:58:43.860Z,3.35
